Terminal Aerodrome Forecast
Issued by NWS

Home | Current Version | Previous Version | Text Only | Print | Product List | Glossary On
Versions: 1 2 3 4 5 6 7 8 9 10 11 12 13
000
FTUS44 KMAF 301100
TAFPEQ
TAF
KPEQ 301120Z 3012/3112 29007KT P6SM SKC
     FM310000 01007KT P6SM SKC
     FM310800 01004KT P6SM OVC023
     FM311100 36005KT P6SM OVC035=

USA.gov is the U.S. government's official web portal to all federal, state and local government web resources and services.